sensor_id;sensor_type;location;lat;lon;timestamp;temperature;humidity
3037;DHT22;1528;52.550;13.408;2022-09-21T00:00:47;11.00;47.30
3037;DHT22;1528;52.550;13.408;2022-09-21T00:03:32;11.00;47.10
3037;DHT22;1528;52.550;13.408;2022-09-21T00:06:19;11.00;46.90
3037;DHT22;1528;52.550;13.408;2022-09-21T00:09:06;10.90;47.00
3037;DHT22;1528;52.550;13.408;2022-09-21T00:11:52;10.90;47.30
3037;DHT22;1528;52.550;13.408;2022-09-21T00:14:37;11.00;47.40
3037;DHT22;1528;52.550;13.408;2022-09-21T00:17:23;10.90;47.50
3037;DHT22;1528;52.550;13.408;2022-09-21T00:20:08;11.00;46.70
3037;DHT22;1528;52.550;13.408;2022-09-21T00:22:53;11.00;46.80
3037;DHT22;1528;52.550;13.408;2022-09-21T00:25:40;11.00;47.00
3037;DHT22;1528;52.550;13.408;2022-09-21T00:28:26;11.00;46.50
3037;DHT22;1528;52.550;13.408;2022-09-21T00:31:13;10.90;46.90
3037;DHT22;1528;52.550;13.408;2022-09-21T00:33:59;11.00;46.90
3037;DHT22;1528;52.550;13.408;2022-09-21T00:36:46;11.00;47.00
3037;DHT22;1528;52.550;13.408;2022-09-21T00:39:32;10.80;47.40
3037;DHT22;1528;52.550;13.408;2022-09-21T00:42:20;10.70;47.70
3037;DHT22;1528;52.550;13.408;2022-09-21T00:45:09;10.80;47.50
3037;DHT22;1528;52.550;13.408;2022-09-21T00:48:03;10.80;47.40
3037;DHT22;1528;52.550;13.408;2022-09-21T00:50:52;11.00;47.00
3037;DHT22;1528;52.550;13.408;2022-09-21T00:53:38;10.80;47.40
3037;DHT22;1528;52.550;13.408;2022-09-21T00:56:24;10.80;47.70
3037;DHT22;1528;52.550;13.408;2022-09-21T00:59:12;10.50;48.70
3037;DHT22;1528;52.550;13.408;2022-09-21T01:01:59;10.50;48.90
3037;DHT22;1528;52.550;13.408;2022-09-21T01:04:46;10.60;49.00
3037;DHT22;1528;52.550;13.408;2022-09-21T01:07:34;10.50;49.30
3037;DHT22;1528;52.550;13.408;2022-09-21T01:10:21;10.40;49.80
3037;DHT22;1528;52.550;13.408;2022-09-21T01:13:13;10.40;49.50
3037;DHT22;1528;52.550;13.408;2022-09-21T01:16:08;10.70;48.70
3037;DHT22;1528;52.550;13.408;2022-09-21T01:19:01;10.90;48.70
3037;DHT22;1528;52.550;13.408;2022-09-21T01:21:55;10.80;47.90
3037;DHT22;1528;52.550;13.408;2022-09-21T01:24:54;10.80;47.90
3037;DHT22;1528;52.550;13.408;2022-09-21T01:27:53;10.50;48.80
3037;DHT22;1528;52.550;13.408;2022-09-21T01:30:43;10.50;49.00
3037;DHT22;1528;52.550;13.408;2022-09-21T01:33:32;10.40;49.30
3037;DHT22;1528;52.550;13.408;2022-09-21T01:36:21;10.20;50.50
3037;DHT22;1528;52.550;13.408;2022-09-21T01:39:12;10.30;50.50
3037;DHT22;1528;52.550;13.408;2022-09-21T01:41:59;10.30;50.50
3037;DHT22;1528;52.550;13.408;2022-09-21T01:44:46;10.20;51.20
3037;DHT22;1528;52.550;13.408;2022-09-21T01:47:35;10.50;49.60
3037;DHT22;1528;52.550;13.408;2022-09-21T01:50:22;10.40;49.60
3037;DHT22;1528;52.550;13.408;2022-09-21T01:53:12;10.30;49.90
3037;DHT22;1528;52.550;13.408;2022-09-21T01:56:02;10.40;50.20
3037;DHT22;1528;52.550;13.408;2022-09-21T01:58:53;10.30;50.00
3037;DHT22;1528;52.550;13.408;2022-09-21T02:01:46;10.30;49.60
3037;DHT22;1528;52.550;13.408;2022-09-21T02:04:34;10.30;49.90
3037;DHT22;1528;52.550;13.408;2022-09-21T02:07:22;10.50;49.00
3037;DHT22;1528;52.550;13.408;2022-09-21T02:10:14;10.40;49.60
3037;DHT22;1528;52.550;13.408;2022-09-21T02:13:03;10.30;50.00
3037;DHT22;1528;52.550;13.408;2022-09-21T02:16:01;10.40;49.90
3037;DHT22;1528;52.550;13.408;2022-09-21T02:18:52;10.40;49.50
3037;DHT22;1528;52.550;13.408;2022-09-21T02:21:50;10.30;50.00
3037;DHT22;1528;52.550;13.408;2022-09-21T02:24:43;10.40;50.00
3037;DHT22;1528;52.550;13.408;2022-09-21T02:27:34;10.40;49.80
3037;DHT22;1528;52.550;13.408;2022-09-21T02:30:22;10.30;50.20
3037;DHT22;1528;52.550;13.408;2022-09-21T02:33:11;10.40;49.60
3037;DHT22;1528;52.550;13.408;2022-09-21T02:36:04;10.50;49.00
3037;DHT22;1528;52.550;13.408;2022-09-21T02:38:55;10.30;49.70
3037;DHT22;1528;52.550;13.408;2022-09-21T02:41:51;10.40;49.80
3037;DHT22;1528;52.550;13.408;2022-09-21T02:44:45;10.50;48.90
3037;DHT22;1528;52.550;13.408;2022-09-21T02:47:35;10.40;49.10
3037;DHT22;1528;52.550;13.408;2022-09-21T02:50:27;10.30;49.50
3037;DHT22;1528;52.550;13.408;2022-09-21T02:53:19;10.30;49.80
3037;DHT22;1528;52.550;13.408;2022-09-21T02:56:08;10.30;49.50
3037;DHT22;1528;52.550;13.408;2022-09-21T02:58:58;10.40;49.00
3037;DHT22;1528;52.550;13.408;2022-09-21T03:01:46;10.30;49.30
3037;DHT22;1528;52.550;13.408;2022-09-21T03:04:32;10.40;49.20
3037;DHT22;1528;52.550;13.408;2022-09-21T03:07:17;10.30;49.20
3037;DHT22;1528;52.550;13.408;2022-09-21T03:10:04;10.50;48.10
3037;DHT22;1528;52.550;13.408;2022-09-21T03:12:55;10.50;48.20
3037;DHT22;1528;52.550;13.408;2022-09-21T03:15:42;10.40;48.80
3037;DHT22;1528;52.550;13.408;2022-09-21T03:18:28;10.40;48.50
3037;DHT22;1528;52.550;13.408;2022-09-21T03:21:13;10.40;48.70
3037;DHT22;1528;52.550;13.408;2022-09-21T03:23:59;10.30;49.00
3037;DHT22;1528;52.550;13.408;2022-09-21T03:26:44;10.30;49.30
3037;DHT22;1528;52.550;13.408;2022-09-21T03:29:31;10.30;49.80
3037;DHT22;1528;52.550;13.408;2022-09-21T03:32:17;10.40;49.20
3037;DHT22;1528;52.550;13.408;2022-09-21T03:35:03;10.10;49.90
3037;DHT22;1528;52.550;13.408;2022-09-21T03:37:49;10.20;49.80
3037;DHT22;1528;52.550;13.408;2022-09-21T03:40:34;10.20;49.70
3037;DHT22;1528;52.550;13.408;2022-09-21T03:43:20;10.20;49.40
3037;DHT22;1528;52.550;13.408;2022-09-21T03:46:07;10.20;49.10
3037;DHT22;1528;52.550;13.408;2022-09-21T03:48:52;10.30;49.10
3037;DHT22;1528;52.550;13.408;2022-09-21T03:51:37;10.10;49.60
3037;DHT22;1528;52.550;13.408;2022-09-21T03:54:23;10.10;49.50
3037;DHT22;1528;52.550;13.408;2022-09-21T03:57:09;10.30;48.70
3037;DHT22;1528;52.550;13.408;2022-09-21T03:59:55;10.20;49.00
3037;DHT22;1528;52.550;13.408;2022-09-21T04:02:41;10.20;48.80
3037;DHT22;1528;52.550;13.408;2022-09-21T04:05:27;10.00;50.40
3037;DHT22;1528;52.550;13.408;2022-09-21T04:08:12;10.20;49.30
3037;DHT22;1528;52.550;13.408;2022-09-21T04:10:58;10.30;48.70
3037;DHT22;1528;52.550;13.408;2022-09-21T04:13:43;10.30;48.70
3037;DHT22;1528;52.550;13.408;2022-09-21T04:16:33;10.30;48.60
3037;DHT22;1528;52.550;13.408;2022-09-21T04:19:20;10.10;49.70
3037;DHT22;1528;52.550;13.408;2022-09-21T04:22:05;10.20;49.30
3037;DHT22;1528;52.550;13.408;2022-09-21T04:24:51;10.10;48.90
3037;DHT22;1528;52.550;13.408;2022-09-21T04:27:37;10.10;48.60
3037;DHT22;1528;52.550;13.408;2022-09-21T04:30:22;9.90;50.50
3037;DHT22;1528;52.550;13.408;2022-09-21T04:33:07;9.80;51.30
3037;DHT22;1528;52.550;13.408;2022-09-21T04:35:55;9.70;52.10
3037;DHT22;1528;52.550;13.408;2022-09-21T04:38:41;9.80;51.60
3037;DHT22;1528;52.550;13.408;2022-09-21T04:41:26;10.00;49.50
3037;DHT22;1528;52.550;13.408;2022-09-21T04:44:12;9.90;50.70
3037;DHT22;1528;52.550;13.408;2022-09-21T04:46:57;10.00;49.70
3037;DHT22;1528;52.550;13.408;2022-09-21T04:49:43;10.00;49.10
3037;DHT22;1528;52.550;13.408;2022-09-21T04:52:30;10.00;49.50
3037;DHT22;1528;52.550;13.408;2022-09-21T04:55:16;9.90;50.70
3037;DHT22;1528;52.550;13.408;2022-09-21T04:58:02;9.80;51.40
3037;DHT22;1528;52.550;13.408;2022-09-21T05:00:48;9.80;51.60
3037;DHT22;1528;52.550;13.408;2022-09-21T05:03:34;10.00;50.00
3037;DHT22;1528;52.550;13.408;2022-09-21T05:06:20;9.70;51.50
3037;DHT22;1528;52.550;13.408;2022-09-21T05:09:07;9.90;51.20
3037;DHT22;1528;52.550;13.408;2022-09-21T05:12:10;9.80;51.40
3037;DHT22;1528;52.550;13.408;2022-09-21T05:14:56;9.70;51.80
3037;DHT22;1528;52.550;13.408;2022-09-21T05:17:41;9.60;52.10
3037;DHT22;1528;52.550;13.408;2022-09-21T05:20:37;9.60;52.20
3037;DHT22;1528;52.550;13.408;2022-09-21T05:23:32;9.80;51.30
3037;DHT22;1528;52.550;13.408;2022-09-21T05:26:19;9.70;51.80
3037;DHT22;1528;52.550;13.408;2022-09-21T05:29:05;9.70;52.40
3037;DHT22;1528;52.550;13.408;2022-09-21T05:31:54;9.90;51.30
3037;DHT22;1528;52.550;13.408;2022-09-21T05:34:48;10.00;49.90
3037;DHT22;1528;52.550;13.408;2022-09-21T05:37:46;9.90;51.40
3037;DHT22;1528;52.550;13.408;2022-09-21T05:40:34;10.00;50.10
3037;DHT22;1528;52.550;13.408;2022-09-21T05:43:22;9.70;52.60
3037;DHT22;1528;52.550;13.408;2022-09-21T05:46:16;10.00;50.60
3037;DHT22;1528;52.550;13.408;2022-09-21T05:49:07;10.20;50.10
3037;DHT22;1528;52.550;13.408;2022-09-21T05:52:01;10.10;50.70
3037;DHT22;1528;52.550;13.408;2022-09-21T05:55:01;10.30;49.90
3037;DHT22;1528;52.550;13.408;2022-09-21T05:57:55;10.20;50.00
3037;DHT22;1528;52.550;13.408;2022-09-21T06:00:51;10.20;50.30
3037;DHT22;1528;52.550;13.408;2022-09-21T06:03:40;10.60;48.80
3037;DHT22;1528;52.550;13.408;2022-09-21T06:06:26;10.40;49.60
3037;DHT22;1528;52.550;13.408;2022-09-21T06:09:11;10.40;49.10
3037;DHT22;1528;52.550;13.408;2022-09-21T06:11:57;10.50;48.90
3037;DHT22;1528;52.550;13.408;2022-09-21T06:14:42;10.80;48.40
3037;DHT22;1528;52.550;13.408;2022-09-21T06:17:29;10.80;48.20
3037;DHT22;1528;52.550;13.408;2022-09-21T06:20:16;10.90;48.20
3037;DHT22;1528;52.550;13.408;2022-09-21T06:23:01;11.00;48.10
3037;DHT22;1528;52.550;13.408;2022-09-21T06:25:50;11.10;47.50
3037;DHT22;1528;52.550;13.408;2022-09-21T06:28:36;11.20;47.80
3037;DHT22;1528;52.550;13.408;2022-09-21T06:31:21;11.30;47.30
3037;DHT22;1528;52.550;13.408;2022-09-21T06:34:08;11.50;46.20
3037;DHT22;1528;52.550;13.408;2022-09-21T06:36:54;11.50;46.10
3037;DHT22;1528;52.550;13.408;2022-09-21T06:39:39;11.60;45.60
3037;DHT22;1528;52.550;13.408;2022-09-21T06:42:26;11.60;45.90
3037;DHT22;1528;52.550;13.408;2022-09-21T06:45:11;11.30;46.90
3037;DHT22;1528;52.550;13.408;2022-09-21T06:47:57;11.50;46.40
3037;DHT22;1528;52.550;13.408;2022-09-21T06:50:43;11.50;46.50
3037;DHT22;1528;52.550;13.408;2022-09-21T06:53:30;11.60;46.60
3037;DHT22;1528;52.550;13.408;2022-09-21T06:56:16;11.80;46.10
3037;DHT22;1528;52.550;13.408;2022-09-21T06:59:02;11.80;45.90
3037;DHT22;1528;52.550;13.408;2022-09-21T07:01:48;11.90;45.60
3037;DHT22;1528;52.550;13.408;2022-09-21T07:04:33;11.80;46.70
3037;DHT22;1528;52.550;13.408;2022-09-21T07:07:20;12.00;46.00
3037;DHT22;1528;52.550;13.408;2022-09-21T07:10:06;12.00;45.40
3037;DHT22;1528;52.550;13.408;2022-09-21T07:12:52;12.10;45.50
3037;DHT22;1528;52.550;13.408;2022-09-21T07:15:38;12.20;44.70
3037;DHT22;1528;52.550;13.408;2022-09-21T07:18:23;12.10;45.30
3037;DHT22;1528;52.550;13.408;2022-09-21T07:21:10;12.00;45.60
3037;DHT22;1528;52.550;13.408;2022-09-21T07:23:58;11.90;46.50
3037;DHT22;1528;52.550;13.408;2022-09-21T07:26:44;12.00;46.50
3037;DHT22;1528;52.550;13.408;2022-09-21T07:29:30;12.20;46.30
3037;DHT22;1528;52.550;13.408;2022-09-21T07:32:16;12.30;46.20
3037;DHT22;1528;52.550;13.408;2022-09-21T07:35:01;12.30;45.70
3037;DHT22;1528;52.550;13.408;2022-09-21T07:37:46;12.10;46.30
3037;DHT22;1528;52.550;13.408;2022-09-21T07:40:34;12.30;46.10
3037;DHT22;1528;52.550;13.408;2022-09-21T07:43:19;12.40;45.80
3037;DHT22;1528;52.550;13.408;2022-09-21T07:46:05;12.40;46.30
3037;DHT22;1528;52.550;13.408;2022-09-21T07:48:52;12.50;46.40
3037;DHT22;1528;52.550;13.408;2022-09-21T07:51:38;12.70;45.30
3037;DHT22;1528;52.550;13.408;2022-09-21T07:54:23;12.70;45.70
3037;DHT22;1528;52.550;13.408;2022-09-21T07:57:10;12.80;45.40
3037;DHT22;1528;52.550;13.408;2022-09-21T08:00:14;12.80;45.10
3037;DHT22;1528;52.550;13.408;2022-09-21T08:02:59;12.80;45.00
3037;DHT22;1528;52.550;13.408;2022-09-21T08:05:45;12.70;45.90
3037;DHT22;1528;52.550;13.408;2022-09-21T08:08:30;13.00;45.50
3037;DHT22;1528;52.550;13.408;2022-09-21T08:11:17;13.10;45.20
3037;DHT22;1528;52.550;13.408;2022-09-21T08:14:04;13.20;45.30
3037;DHT22;1528;52.550;13.408;2022-09-21T08:16:49;13.30;45.40
3037;DHT22;1528;52.550;13.408;2022-09-21T08:19:34;13.40;44.90
3037;DHT22;1528;52.550;13.408;2022-09-21T08:22:19;13.40;45.00
3037;DHT22;1528;52.550;13.408;2022-09-21T08:25:08;13.50;45.20
3037;DHT22;1528;52.550;13.408;2022-09-21T08:27:57;13.60;45.70
3037;DHT22;1528;52.550;13.408;2022-09-21T08:30:44;13.60;45.10
3037;DHT22;1528;52.550;13.408;2022-09-21T08:33:30;13.90;44.40
3037;DHT22;1528;52.550;13.408;2022-09-21T08:36:15;14.10;43.90
3037;DHT22;1528;52.550;13.408;2022-09-21T08:39:01;14.20;43.60
3037;DHT22;1528;52.550;13.408;2022-09-21T08:42:09;14.40;42.70
3037;DHT22;1528;52.550;13.408;2022-09-21T08:45:00;14.50;42.50
3037;DHT22;1528;52.550;13.408;2022-09-21T08:47:51;14.60;42.60
3037;DHT22;1528;52.550;13.408;2022-09-21T08:50:41;14.60;42.50
3037;DHT22;1528;52.550;13.408;2022-09-21T08:53:32;14.70;42.40
3037;DHT22;1528;52.550;13.408;2022-09-21T08:56:19;14.70;41.90
3037;DHT22;1528;52.550;13.408;2022-09-21T08:59:10;15.00;41.80
3037;DHT22;1528;52.550;13.408;2022-09-21T09:02:04;15.20;40.40
3037;DHT22;1528;52.550;13.408;2022-09-21T09:04:59;15.20;40.80
3037;DHT22;1528;52.550;13.408;2022-09-21T09:08:01;15.30;40.00
3037;DHT22;1528;52.550;13.408;2022-09-21T09:10:55;15.20;40.60
3037;DHT22;1528;52.550;13.408;2022-09-21T09:14:10;15.30;40.50
3037;DHT22;1528;52.550;13.408;2022-09-21T09:17:08;15.20;40.60
3037;DHT22;1528;52.550;13.408;2022-09-21T09:20:00;15.30;40.50
3037;DHT22;1528;52.550;13.408;2022-09-21T09:22:52;15.30;40.80
3037;DHT22;1528;52.550;13.408;2022-09-21T09:25:42;15.30;40.80
3037;DHT22;1528;52.550;13.408;2022-09-21T09:28:34;15.40;40.50
3037;DHT22;1528;52.550;13.408;2022-09-21T09:31:27;15.10;41.50
3037;DHT22;1528;52.550;13.408;2022-09-21T09:34:17;15.20;41.30
3037;DHT22;1528;52.550;13.408;2022-09-21T09:37:11;15.20;41.70
3037;DHT22;1528;52.550;13.408;2022-09-21T09:39:58;15.10;41.80
3037;DHT22;1528;52.550;13.408;2022-09-21T09:42:52;15.20;40.60
3037;DHT22;1528;52.550;13.408;2022-09-21T09:45:49;15.00;41.80
3037;DHT22;1528;52.550;13.408;2022-09-21T09:48:47;15.10;41.00
3037;DHT22;1528;52.550;13.408;2022-09-21T09:51:34;15.30;40.70
3037;DHT22;1528;52.550;13.408;2022-09-21T09:54:26;15.20;41.30
3037;DHT22;1528;52.550;13.408;2022-09-21T09:57:14;15.20;41.70
3037;DHT22;1528;52.550;13.408;2022-09-21T10:00:03;15.30;40.90
3037;DHT22;1528;52.550;13.408;2022-09-21T10:02:53;15.40;41.50
3037;DHT22;1528;52.550;13.408;2022-09-21T10:05:38;15.50;41.40
3037;DHT22;1528;52.550;13.408;2022-09-21T10:08:40;15.60;40.40
3037;DHT22;1528;52.550;13.408;2022-09-21T10:11:36;15.70;40.10
3037;DHT22;1528;52.550;13.408;2022-09-21T10:14:24;15.80;40.00
3037;DHT22;1528;52.550;13.408;2022-09-21T10:17:15;15.80;39.70
3037;DHT22;1528;52.550;13.408;2022-09-21T10:20:04;15.90;40.00
3037;DHT22;1528;52.550;13.408;2022-09-21T10:22:53;16.10;39.40
3037;DHT22;1528;52.550;13.408;2022-09-21T10:25:41;16.40;37.90
3037;DHT22;1528;52.550;13.408;2022-09-21T10:28:29;16.70;36.20
3037;DHT22;1528;52.550;13.408;2022-09-21T10:31:21;17.00;33.60
3037;DHT22;1528;52.550;13.408;2022-09-21T10:34:12;17.30;32.20
3037;DHT22;1528;52.550;13.408;2022-09-21T10:36:59;17.50;32.20
3037;DHT22;1528;52.550;13.408;2022-09-21T10:39:45;17.80;31.30
3037;DHT22;1528;52.550;13.408;2022-09-21T10:42:35;17.60;31.70
3037;DHT22;1528;52.550;13.408;2022-09-21T10:45:24;17.70;30.00
3037;DHT22;1528;52.550;13.408;2022-09-21T10:48:13;17.50;30.70
3037;DHT22;1528;52.550;13.408;2022-09-21T10:51:01;17.40;30.80
3037;DHT22;1528;52.550;13.408;2022-09-21T10:53:50;17.40;30.10
3037;DHT22;1528;52.550;13.408;2022-09-21T10:56:36;17.40;29.20
3037;DHT22;1528;52.550;13.408;2022-09-21T10:59:35;17.70;28.40
3037;DHT22;1528;52.550;13.408;2022-09-21T11:02:33;17.90;27.70
3037;DHT22;1528;52.550;13.408;2022-09-21T11:05:22;17.90;26.80
3037;DHT22;1528;52.550;13.408;2022-09-21T11:08:13;18.20;27.30
3037;DHT22;1528;52.550;13.408;2022-09-21T11:11:12;18.70;26.50
3037;DHT22;1528;52.550;13.408;2022-09-21T11:14:09;19.10;24.90
3037;DHT22;1528;52.550;13.408;2022-09-21T11:17:06;19.90;22.20
3037;DHT22;1528;52.550;13.408;2022-09-21T11:19:56;20.50;21.90
3037;DHT22;1528;52.550;13.408;2022-09-21T11:22:53;20.90;21.30
3037;DHT22;1528;52.550;13.408;2022-09-21T11:25:42;20.40;22.10
3037;DHT22;1528;52.550;13.408;2022-09-21T11:34:27;19.60;20.80
3037;DHT22;1528;52.550;13.408;2022-09-21T11:37:27;19.40;21.10
3037;DHT22;1528;52.550;13.408;2022-09-21T11:40:31;19.30;21.80
3037;DHT22;1528;52.550;13.408;2022-09-21T11:46:36;19.40;21.50
3037;DHT22;1528;52.550;13.408;2022-09-21T11:49:55;19.30;23.00
3037;DHT22;1528;52.550;13.408;2022-09-21T11:52:56;19.40;22.70
3037;DHT22;1528;52.550;13.408;2022-09-21T11:59:01;19.40;21.90
3037;DHT22;1528;52.550;13.408;2022-09-21T12:02:03;19.50;21.90
3037;DHT22;1528;52.550;13.408;2022-09-21T12:04:59;19.50;21.20
3037;DHT22;1528;52.550;13.408;2022-09-21T12:08:09;19.20;21.20
3037;DHT22;1528;52.550;13.408;2022-09-21T12:11:01;18.50;22.40
3037;DHT22;1528;52.550;13.408;2022-09-21T12:13:55;18.70;22.30
3037;DHT22;1528;52.550;13.408;2022-09-21T12:16:50;20.50;20.40
3037;DHT22;1528;52.550;13.408;2022-09-21T12:19:45;23.40;15.40
3037;DHT22;1528;52.550;13.408;2022-09-21T12:22:34;25.90;12.40
3037;DHT22;1528;52.550;13.408;2022-09-21T12:25:24;30.50;4.90
3037;DHT22;1528;52.550;13.408;2022-09-21T12:28:16;31.50;1.00
3037;DHT22;1528;52.550;13.408;2022-09-21T12:31:07;30.10;1.00
3037;DHT22;1528;52.550;13.408;2022-09-21T12:33:57;27.50;3.60
3037;DHT22;1528;52.550;13.408;2022-09-21T12:36:51;26.00;6.50
3037;DHT22;1528;52.550;13.408;2022-09-21T12:39:43;25.00;8.20
3037;DHT22;1528;52.550;13.408;2022-09-21T12:42:36;23.70;9.90
3037;DHT22;1528;52.550;13.408;2022-09-21T12:45:27;22.20;12.10
3037;DHT22;1528;52.550;13.408;2022-09-21T12:48:25;21.70;13.10
3037;DHT22;1528;52.550;13.408;2022-09-21T12:51:17;21.20;14.00
3037;DHT22;1528;52.550;13.408;2022-09-21T12:54:10;21.00;14.80
3037;DHT22;1528;52.550;13.408;2022-09-21T12:57:04;20.60;15.80
3037;DHT22;1528;52.550;13.408;2022-09-21T13:00:00;20.10;16.20
3037;DHT22;1528;52.550;13.408;2022-09-21T13:02:51;20.00;17.00
3037;DHT22;1528;52.550;13.408;2022-09-21T13:05:48;19.90;17.30
3037;DHT22;1528;52.550;13.408;2022-09-21T13:08:39;19.70;17.50
3037;DHT22;1528;52.550;13.408;2022-09-21T13:11:25;19.60;16.90
3037;DHT22;1528;52.550;13.408;2022-09-21T13:14:12;19.60;16.00
3037;DHT22;1528;52.550;13.408;2022-09-21T13:16:59;19.40;16.00
3037;DHT22;1528;52.550;13.408;2022-09-21T13:19:55;19.40;16.30
3037;DHT22;1528;52.550;13.408;2022-09-21T13:22:43;19.20;16.60
3037;DHT22;1528;52.550;13.408;2022-09-21T13:25:32;19.10;16.60
3037;DHT22;1528;52.550;13.408;2022-09-21T13:28:20;19.10;17.50
3037;DHT22;1528;52.550;13.408;2022-09-21T13:31:39;19.30;17.90
3037;DHT22;1528;52.550;13.408;2022-09-21T13:34:36;19.50;17.90
3037;DHT22;1528;52.550;13.408;2022-09-21T13:37:26;19.30;18.30
3037;DHT22;1528;52.550;13.408;2022-09-21T13:40:47;19.00;18.50
3037;DHT22;1528;52.550;13.408;2022-09-21T13:44:01;18.80;18.80
3037;DHT22;1528;52.550;13.408;2022-09-21T13:46:55;18.80;18.50
3037;DHT22;1528;52.550;13.408;2022-09-21T13:49:49;18.60;18.80
3037;DHT22;1528;52.550;13.408;2022-09-21T13:52:42;18.70;18.80
3037;DHT22;1528;52.550;13.408;2022-09-21T13:55:32;18.70;18.70
3037;DHT22;1528;52.550;13.408;2022-09-21T13:58:20;18.50;18.50
3037;DHT22;1528;52.550;13.408;2022-09-21T14:01:14;18.50;19.00
3037;DHT22;1528;52.550;13.408;2022-09-21T14:04:04;18.50;19.10
3037;DHT22;1528;52.550;13.408;2022-09-21T14:07:05;18.50;18.70
3037;DHT22;1528;52.550;13.408;2022-09-21T14:09:54;18.60;18.60
3037;DHT22;1528;52.550;13.408;2022-09-21T14:12:41;18.60;18.60
3037;DHT22;1528;52.550;13.408;2022-09-21T14:15:35;18.80;17.90
3037;DHT22;1528;52.550;13.408;2022-09-21T14:18:35;18.70;18.00
3037;DHT22;1528;52.550;13.408;2022-09-21T14:21:21;18.70;18.30
3037;DHT22;1528;52.550;13.408;2022-09-21T14:24:19;18.80;18.00
3037;DHT22;1528;52.550;13.408;2022-09-21T14:27:13;18.90;17.50
3037;DHT22;1528;52.550;13.408;2022-09-21T14:30:02;18.90;17.50
3037;DHT22;1528;52.550;13.408;2022-09-21T14:32:52;18.90;16.30
3037;DHT22;1528;52.550;13.408;2022-09-21T14:35:46;19.00;16.60
3037;DHT22;1528;52.550;13.408;2022-09-21T14:38:39;19.00;17.00
3037;DHT22;1528;52.550;13.408;2022-09-21T14:41:31;19.00;15.80
3037;DHT22;1528;52.550;13.408;2022-09-21T14:44:24;18.70;15.30
3037;DHT22;1528;52.550;13.408;2022-09-21T14:47:28;18.60;15.00
3037;DHT22;1528;52.550;13.408;2022-09-21T14:50:28;18.80;15.50
3037;DHT22;1528;52.550;13.408;2022-09-21T14:53:31;19.10;15.90
3037;DHT22;1528;52.550;13.408;2022-09-21T14:59:52;27.20;5.40
3037;DHT22;1528;52.550;13.408;2022-09-21T15:02:43;31.30;1.00
3037;DHT22;1528;52.550;13.408;2022-09-21T15:05:33;33.90;1.00
3037;DHT22;1528;52.550;13.408;2022-09-21T15:08:37;35.80;1.00
3037;DHT22;1528;52.550;13.408;2022-09-21T15:11:52;36.20;1.00
3037;DHT22;1528;52.550;13.408;2022-09-21T15:14:43;37.50;1.00
3037;DHT22;1528;52.550;13.408;2022-09-21T15:17:30;38.90;1.00
3037;DHT22;1528;52.550;13.408;2022-09-21T15:20:21;39.00;1.00
3037;DHT22;1528;52.550;13.408;2022-09-21T15:23:17;39.70;1.00
3037;DHT22;1528;52.550;13.408;2022-09-21T15:26:06;39.00;1.00
3037;DHT22;1528;52.550;13.408;2022-09-21T15:28:55;39.90;1.00
3037;DHT22;1528;52.550;13.408;2022-09-21T15:31:41;40.60;1.00
3037;DHT22;1528;52.550;13.408;2022-09-21T15:34:27;40.40;1.00
3037;DHT22;1528;52.550;13.408;2022-09-21T15:37:14;41.00;1.00
3037;DHT22;1528;52.550;13.408;2022-09-21T15:40:02;41.50;1.00
3037;DHT22;1528;52.550;13.408;2022-09-21T15:42:58;40.80;1.00
3037;DHT22;1528;52.550;13.408;2022-09-21T15:45:48;41.30;1.00
3037;DHT22;1528;52.550;13.408;2022-09-21T15:48:38;41.50;1.00
3037;DHT22;1528;52.550;13.408;2022-09-21T15:51:28;40.60;1.00
3037;DHT22;1528;52.550;13.408;2022-09-21T15:54:23;39.70;1.00
3037;DHT22;1528;52.550;13.408;2022-09-21T15:57:24;38.40;1.00
3037;DHT22;1528;52.550;13.408;2022-09-21T16:00:24;34.80;1.00
3037;DHT22;1528;52.550;13.408;2022-09-21T16:03:19;31.40;1.00
3037;DHT22;1528;52.550;13.408;2022-09-21T16:06:24;27.80;1.00
3037;DHT22;1528;52.550;13.408;2022-09-21T16:09:38;26.50;1.00
3037;DHT22;1528;52.550;13.408;2022-09-21T16:12:36;25.50;1.00
3037;DHT22;1528;52.550;13.408;2022-09-21T16:15:24;24.60;2.20
3037;DHT22;1528;52.550;13.408;2022-09-21T16:18:29;24.10;2.70
3037;DHT22;1528;52.550;13.408;2022-09-21T16:21:23;23.50;3.70
3037;DHT22;1528;52.550;13.408;2022-09-21T16:24:16;22.80;4.50
3037;DHT22;1528;52.550;13.408;2022-09-21T16:27:03;22.30;6.00
3037;DHT22;1528;52.550;13.408;2022-09-21T16:29:50;21.90;6.70
3037;DHT22;1528;52.550;13.408;2022-09-21T16:32:36;21.50;7.50
3037;DHT22;1528;52.550;13.408;2022-09-21T16:35:26;20.90;8.10
3037;DHT22;1528;52.550;13.408;2022-09-21T16:38:12;20.70;8.80
3037;DHT22;1528;52.550;13.408;2022-09-21T16:41:00;20.30;10.00
3037;DHT22;1528;52.550;13.408;2022-09-21T16:43:47;20.10;10.30
3037;DHT22;1528;52.550;13.408;2022-09-21T16:46:34;19.80;11.00
3037;DHT22;1528;52.550;13.408;2022-09-21T16:49:20;19.40;11.80
3037;DHT22;1528;52.550;13.408;2022-09-21T16:52:07;19.40;11.90
3037;DHT22;1528;52.550;13.408;2022-09-21T16:54:53;19.00;12.40
3037;DHT22;1528;52.550;13.408;2022-09-21T16:57:40;18.80;12.80
3037;DHT22;1528;52.550;13.408;2022-09-21T17:00:29;18.80;13.30
3037;DHT22;1528;52.550;13.408;2022-09-21T17:03:15;18.50;13.60
3037;DHT22;1528;52.550;13.408;2022-09-21T17:06:01;18.40;13.80
3037;DHT22;1528;52.550;13.408;2022-09-21T17:08:48;18.10;14.80
3037;DHT22;1528;52.550;13.408;2022-09-21T17:11:34;17.90;15.10
3037;DHT22;1528;52.550;13.408;2022-09-21T17:14:20;17.90;15.20
3037;DHT22;1528;52.550;13.408;2022-09-21T17:17:11;17.90;15.10
3037;DHT22;1528;52.550;13.408;2022-09-21T17:19:56;17.80;15.60
3037;DHT22;1528;52.550;13.408;2022-09-21T17:22:42;17.50;16.20
3037;DHT22;1528;52.550;13.408;2022-09-21T17:25:29;17.40;16.60
3037;DHT22;1528;52.550;13.408;2022-09-21T17:28:20;17.20;17.20
3037;DHT22;1528;52.550;13.408;2022-09-21T17:31:10;17.20;17.90
3037;DHT22;1528;52.550;13.408;2022-09-21T17:33:56;17.20;17.80
3037;DHT22;1528;52.550;13.408;2022-09-21T17:36:42;17.10;18.20
3037;DHT22;1528;52.550;13.408;2022-09-21T17:39:28;16.90;18.40
3037;DHT22;1528;52.550;13.408;2022-09-21T17:42:17;16.90;19.00
3037;DHT22;1528;52.550;13.408;2022-09-21T17:45:12;16.70;19.20
3037;DHT22;1528;52.550;13.408;2022-09-21T17:48:00;16.60;19.50
3037;DHT22;1528;52.550;13.408;2022-09-21T17:50:46;16.50;19.90
3037;DHT22;1528;52.550;13.408;2022-09-21T17:53:32;16.40;20.80
3037;DHT22;1528;52.550;13.408;2022-09-21T17:56:29;16.30;21.00
3037;DHT22;1528;52.550;13.408;2022-09-21T17:59:26;16.30;21.40
3037;DHT22;1528;52.550;13.408;2022-09-21T18:02:20;16.10;22.00
3037;DHT22;1528;52.550;13.408;2022-09-21T18:05:14;16.00;21.60
3037;DHT22;1528;52.550;13.408;2022-09-21T18:08:02;16.00;22.30
3037;DHT22;1528;52.550;13.408;2022-09-21T18:13:22;15.80;22.90
3037;DHT22;1528;52.550;13.408;2022-09-21T18:16:25;15.60;22.60
3037;DHT22;1528;52.550;13.408;2022-09-21T18:19:23;15.50;23.10
3037;DHT22;1528;52.550;13.408;2022-09-21T18:22:16;15.40;23.40
3037;DHT22;1528;52.550;13.408;2022-09-21T18:25:09;15.40;23.50
3037;DHT22;1528;52.550;13.408;2022-09-21T18:27:58;15.30;23.70
3037;DHT22;1528;52.550;13.408;2022-09-21T18:30:51;15.10;24.40
3037;DHT22;1528;52.550;13.408;2022-09-21T18:33:47;15.10;24.70